createdAt,value
2023-05-21T00:00:09.593Z,11
2023-05-21T00:03:10.199Z,10.9
2023-05-21T00:06:09.939Z,10.7
2023-05-21T00:09:09.638Z,10.6
2023-05-21T00:12:09.561Z,10.4
2023-05-21T00:15:09.583Z,10.3
2023-05-21T00:18:11.110Z,10.3
2023-05-21T00:21:09.506Z,10.1
2023-05-21T00:24:09.589Z,10
2023-05-21T00:27:09.557Z,9.9
2023-05-21T00:30:09.953Z,9.9
2023-05-21T00:33:10.729Z,9.9
2023-05-21T00:36:10.762Z,9.9
2023-05-21T00:39:09.614Z,9.9
2023-05-21T00:42:09.834Z,9.8
2023-05-21T00:45:09.744Z,9.7
2023-05-21T00:48:10.083Z,9.6
2023-05-21T00:51:09.662Z,9.5
2023-05-21T00:54:09.514Z,9.4
2023-05-21T00:57:09.474Z,9.3
2023-05-21T01:00:09.753Z,9.2
2023-05-21T01:03:10.993Z,9.2
2023-05-21T01:06:09.957Z,9.2
2023-05-21T01:09:11.859Z,9.1
2023-05-21T01:12:09.704Z,9.1
2023-05-21T01:15:09.620Z,8.9
2023-05-21T01:18:10.062Z,8.9
2023-05-21T01:21:09.901Z,8.9
2023-05-21T01:24:09.638Z,8.9
2023-05-21T01:27:09.730Z,8.9
2023-05-21T01:30:09.662Z,8.7
2023-05-21T01:33:10.429Z,8.7
2023-05-21T01:36:09.530Z,8.6
2023-05-21T01:39:09.849Z,8.6
2023-05-21T01:42:09.602Z,8.5
2023-05-21T01:45:09.567Z,8.4
2023-05-21T01:48:09.775Z,8.4
2023-05-21T01:51:09.499Z,8.3
2023-05-21T01:54:09.433Z,8.2
2023-05-21T01:57:09.484Z,8.1
2023-05-21T02:00:09.682Z,8.1
2023-05-21T02:03:10.252Z,8.1
2023-05-21T02:06:09.518Z,8.1
2023-05-21T02:09:09.587Z,8
2023-05-21T02:12:09.676Z,8
2023-05-21T02:15:09.529Z,7.9
2023-05-21T02:18:09.853Z,7.9
2023-05-21T02:21:09.481Z,7.9
2023-05-21T02:24:09.446Z,7.8
2023-05-21T02:27:09.574Z,7.7
2023-05-21T02:30:09.540Z,7.7
2023-05-21T02:33:09.940Z,7.7
2023-05-21T02:36:09.502Z,7.8
2023-05-21T02:39:09.535Z,7.9
2023-05-21T02:42:09.545Z,7.7
2023-05-21T02:45:09.510Z,7.7
2023-05-21T02:48:09.902Z,7.7
2023-05-21T02:51:09.515Z,7.7
2023-05-21T02:54:09.630Z,7.6
2023-05-21T02:57:09.482Z,7.6
2023-05-21T03:00:09.616Z,7.6
2023-05-21T03:03:10.193Z,7.5
2023-05-21T03:06:09.535Z,7.6
2023-05-21T03:09:10.393Z,7.5
2023-05-21T03:12:09.520Z,7.5
2023-05-21T03:15:09.502Z,7.5
2023-05-21T03:18:09.962Z,7.6
2023-05-21T03:21:09.633Z,7.6
2023-05-21T03:24:09.628Z,7.5
2023-05-21T03:27:09.491Z,7.5
2023-05-21T03:30:11.807Z,7.4
2023-05-21T03:33:09.969Z,7.5
2023-05-21T03:36:09.632Z,7.6
2023-05-21T03:39:09.572Z,7.7
2023-05-21T03:42:09.574Z,7.7
2023-05-21T03:45:09.566Z,7.7
2023-05-21T03:48:09.744Z,7.7
2023-05-21T03:51:09.601Z,7.7
2023-05-21T03:54:09.638Z,7.9
2023-05-21T03:57:09.597Z,8
2023-05-21T04:00:09.994Z,8.2
2023-05-21T04:03:10.115Z,8.3
2023-05-21T04:06:09.564Z,8.3
2023-05-21T04:09:09.495Z,8.3
2023-05-21T04:12:09.590Z,8.4
2023-05-21T04:15:09.732Z,8.5
2023-05-21T04:18:09.999Z,8.6
2023-05-21T04:21:09.562Z,8.8
2023-05-21T04:24:09.791Z,8.8
2023-05-21T04:27:09.553Z,9
2023-05-21T04:30:09.608Z,9.1
2023-05-21T04:33:09.918Z,9.3
2023-05-21T04:36:09.625Z,9.4
2023-05-21T04:39:09.608Z,9.5
2023-05-21T04:42:09.614Z,9.6
2023-05-21T04:45:09.562Z,9.8
2023-05-21T04:48:10.127Z,9.9
2023-05-21T04:51:09.569Z,10.1
2023-05-21T04:54:09.572Z,10.4
2023-05-21T04:57:09.508Z,10.6
2023-05-21T05:00:09.689Z,10.9
2023-05-21T05:03:10.195Z,11.1
2023-05-21T05:06:09.541Z,11.3
2023-05-21T05:09:09.627Z,11.4
2023-05-21T05:12:09.657Z,11.5
2023-05-21T05:15:09.715Z,11.6
2023-05-21T05:18:09.994Z,11.6
2023-05-21T05:21:09.586Z,11.8
2023-05-21T05:24:09.765Z,11.9
2023-05-21T05:27:09.599Z,12.1
2023-05-21T05:30:10.014Z,12.3
2023-05-21T05:33:10.056Z,12.5
2023-05-21T05:36:09.526Z,12.7
2023-05-21T05:39:09.646Z,12.9
2023-05-21T05:42:09.680Z,13
2023-05-21T05:45:09.613Z,13.2
2023-05-21T05:48:09.893Z,13.3
2023-05-21T05:51:09.560Z,13.4
2023-05-21T05:54:09.591Z,13.4
2023-05-21T05:57:09.585Z,13.4
2023-05-21T06:00:09.681Z,13.6
2023-05-21T06:03:10.340Z,13.5
2023-05-21T06:06:09.894Z,13.6
2023-05-21T06:09:09.595Z,13.7
2023-05-21T06:12:12.249Z,13.8
2023-05-21T06:15:09.700Z,13.9
2023-05-21T06:18:09.980Z,13.9
2023-05-21T06:21:09.626Z,13.9
2023-05-21T06:24:09.563Z,14.1
2023-05-21T06:27:09.633Z,14.3
2023-05-21T06:30:09.592Z,14.5
2023-05-21T06:33:10.231Z,14.8
2023-05-21T06:36:09.617Z,15.1
2023-05-21T06:39:09.733Z,15.4
2023-05-21T06:42:09.539Z,15.6
2023-05-21T06:45:09.647Z,15.9
2023-05-21T06:48:09.780Z,16.4
2023-05-21T06:51:09.599Z,17
2023-05-21T06:54:09.563Z,17.8
2023-05-21T06:57:09.745Z,18.4
2023-05-21T07:00:09.924Z,19
2023-05-21T07:03:10.456Z,18.9
2023-05-21T07:06:09.676Z,18.6
2023-05-21T07:09:09.591Z,18.6
2023-05-21T07:12:09.619Z,18.3
2023-05-21T07:15:09.721Z,18.3
2023-05-21T07:18:10.078Z,17.9
2023-05-21T07:21:09.725Z,17.9
2023-05-21T07:24:09.667Z,17.9
2023-05-21T07:27:30.785Z,17.9
2023-05-21T07:30:09.694Z,17.8
2023-05-21T07:33:09.786Z,17.6
2023-05-21T07:36:09.653Z,17.4
2023-05-21T07:39:09.622Z,17.2
2023-05-21T07:42:09.524Z,17.2
2023-05-21T07:45:09.670Z,17.3
2023-05-21T07:48:09.954Z,17.5
2023-05-21T07:51:09.652Z,17.6
2023-05-21T07:54:09.675Z,17.6
2023-05-21T07:57:09.736Z,17.8
2023-05-21T08:00:10.196Z,18.1
2023-05-21T08:03:10.184Z,18.3
2023-05-21T08:06:11.084Z,18.5
2023-05-21T08:09:09.608Z,19
2023-05-21T08:12:09.740Z,19.4
2023-05-21T08:15:09.599Z,19.4
2023-05-21T08:18:10.286Z,19.7
2023-05-21T08:21:09.566Z,19.7
2023-05-21T08:24:09.747Z,19.8
2023-05-21T08:27:09.785Z,20
2023-05-21T08:30:09.716Z,19.9
2023-05-21T08:33:09.955Z,20
2023-05-21T08:36:09.611Z,20.3
2023-05-21T08:39:09.545Z,20.6
2023-05-21T08:42:09.674Z,20.7
2023-05-21T08:45:09.645Z,20.9
2023-05-21T08:48:09.942Z,20.8
2023-05-21T08:51:09.662Z,20.9
2023-05-21T08:54:09.659Z,21.1
2023-05-21T08:57:09.740Z,21.2
2023-05-21T09:00:09.594Z,21.1
2023-05-21T09:03:10.220Z,21
2023-05-21T09:06:09.630Z,21.2
2023-05-21T09:09:09.594Z,21.6
2023-05-21T09:12:09.665Z,22.1
2023-05-21T09:15:09.729Z,22.2
2023-05-21T09:18:09.779Z,22.5
2023-05-21T09:21:09.580Z,22.8
2023-05-21T09:24:09.698Z,23.4
2023-05-21T09:27:09.556Z,24.1
2023-05-21T09:30:09.681Z,24.8
2023-05-21T09:33:10.245Z,25.4
2023-05-21T09:36:09.555Z,25.2
2023-05-21T09:39:09.612Z,24.7
2023-05-21T09:42:09.586Z,24.6
2023-05-21T09:45:09.626Z,24
2023-05-21T09:48:09.832Z,24.1
2023-05-21T09:51:09.630Z,24.4
2023-05-21T09:54:09.616Z,25.3
2023-05-21T09:57:09.724Z,25.8
2023-05-21T10:00:09.674Z,25.7
2023-05-21T10:03:09.983Z,24.6
2023-05-21T10:06:09.560Z,24.3
2023-05-21T10:09:14.350Z,25
2023-05-21T10:12:09.612Z,25.4
2023-05-21T10:15:09.554Z,25.6
2023-05-21T10:18:10.135Z,25.1
2023-05-21T10:21:09.511Z,25.6
2023-05-21T10:24:09.624Z,26.2
2023-05-21T10:27:09.536Z,26.6
2023-05-21T10:30:09.569Z,27.4
2023-05-21T10:33:10.257Z,27.9
2023-05-21T10:36:09.652Z,28.4
2023-05-21T10:39:09.532Z,28.6
2023-05-21T10:42:09.588Z,28.6
2023-05-21T10:45:09.986Z,28.3
2023-05-21T10:48:09.809Z,28.4
2023-05-21T10:51:09.541Z,28.6
2023-05-21T10:54:09.553Z,28.9
2023-05-21T10:57:09.677Z,28.9
2023-05-21T11:00:09.764Z,28.9
2023-05-21T11:03:10.202Z,28.5
2023-05-21T11:06:09.578Z,28.1
2023-05-21T11:09:09.594Z,28.3
2023-05-21T11:12:09.772Z,27.9
2023-05-21T11:15:09.655Z,28.1
2023-05-21T11:18:10.030Z,27.8
2023-05-21T11:21:09.626Z,27.3
2023-05-21T11:24:09.611Z,27.4
2023-05-21T11:27:09.561Z,27.4
2023-05-21T11:30:09.683Z,27.1
2023-05-21T11:33:10.268Z,27.1
2023-05-21T11:36:09.724Z,27
2023-05-21T11:39:09.573Z,26.9
2023-05-21T11:42:13.515Z,27.2
2023-05-21T11:45:09.629Z,27.2
2023-05-21T11:48:09.977Z,27.4
2023-05-21T11:51:09.533Z,27.7
2023-05-21T11:54:09.619Z,27.8
2023-05-21T11:57:09.557Z,28.2
2023-05-21T12:00:09.677Z,28
2023-05-21T12:03:10.466Z,28.2
2023-05-21T12:06:10.003Z,27.9
2023-05-21T12:09:09.586Z,27.9
2023-05-21T12:12:09.569Z,28.3
2023-05-21T12:15:09.569Z,28.3
2023-05-21T12:18:09.953Z,28.3
2023-05-21T12:21:11.761Z,27.8
2023-05-21T12:24:09.688Z,27.9
2023-05-21T12:27:09.698Z,28.1
2023-05-21T12:30:09.693Z,28.3
2023-05-21T12:33:09.960Z,27.9
2023-05-21T12:36:09.564Z,28.3
2023-05-21T12:39:11.513Z,28.8
2023-05-21T12:42:09.595Z,28.6
2023-05-21T12:45:09.557Z,29
2023-05-21T12:48:10.045Z,28.9
2023-05-21T12:51:09.505Z,28.5
2023-05-21T12:54:09.576Z,28.1
2023-05-21T12:57:09.537Z,28.2
2023-05-21T13:00:09.665Z,28.5
2023-05-21T13:03:10.116Z,28.4
2023-05-21T13:06:09.583Z,28.2
2023-05-21T13:09:09.859Z,28.1
2023-05-21T13:12:09.559Z,28.3
2023-05-21T13:15:09.613Z,28.3
2023-05-21T13:18:10.197Z,28
2023-05-21T13:21:09.655Z,27.8
2023-05-21T13:24:09.689Z,27.9
2023-05-21T13:27:09.685Z,28
2023-05-21T13:30:09.845Z,27.8
2023-05-21T13:33:10.693Z,27.9
2023-05-21T13:36:09.608Z,28
2023-05-21T13:39:09.687Z,28.3
2023-05-21T13:42:09.524Z,28.3
2023-05-21T13:45:09.511Z,27.8
2023-05-21T13:48:09.874Z,28
2023-05-21T13:51:09.603Z,28.4
2023-05-21T13:54:09.615Z,28.4
2023-05-21T13:57:09.533Z,28.1
2023-05-21T14:00:09.758Z,28.3
2023-05-21T14:03:10.382Z,28.3
2023-05-21T14:06:09.620Z,28.7
2023-05-21T14:09:09.608Z,28.9
2023-05-21T14:12:12.139Z,28.9
2023-05-21T14:15:09.895Z,28.7
2023-05-21T14:18:09.968Z,27.8
2023-05-21T14:21:09.678Z,27
2023-05-21T14:24:09.530Z,26.8
2023-05-21T14:27:09.596Z,26.8
2023-05-21T14:30:09.670Z,26.9
2023-05-21T14:33:09.873Z,27
2023-05-21T14:36:09.638Z,27.1
2023-05-21T14:39:09.591Z,26.8
2023-05-21T14:42:09.630Z,26.7
2023-05-21T14:45:27.941Z,26.8
2023-05-21T14:48:09.878Z,26.7
2023-05-21T14:51:09.616Z,26.6
2023-05-21T14:54:09.673Z,26.7
2023-05-21T14:57:09.564Z,26.9
2023-05-21T15:00:09.658Z,27
2023-05-21T15:03:10.376Z,27.2
2023-05-21T15:06:09.742Z,27.3
2023-05-21T15:09:09.548Z,27.5
2023-05-21T15:12:09.521Z,27.1
2023-05-21T15:15:09.577Z,26.9
2023-05-21T15:18:09.865Z,27
2023-05-21T15:21:09.635Z,27.2
2023-05-21T15:24:09.504Z,27.2
2023-05-21T15:27:09.624Z,27.1
2023-05-21T15:30:09.740Z,27
2023-05-21T15:33:09.627Z,26.8
2023-05-21T15:36:09.761Z,26.6
2023-05-21T15:39:09.568Z,26.4
2023-05-21T15:42:09.623Z,26.2
2023-05-21T15:45:09.569Z,26.4
2023-05-21T15:48:09.862Z,26.4
2023-05-21T15:51:09.650Z,26.4
2023-05-21T15:54:09.586Z,26.3
2023-05-21T15:57:09.630Z,26.2
2023-05-21T16:00:09.800Z,26.4
2023-05-21T16:03:10.194Z,26.7
2023-05-21T16:06:09.631Z,26.8
2023-05-21T16:09:09.671Z,26.8
2023-05-21T16:12:09.595Z,26.7
2023-05-21T16:15:09.671Z,26.6
2023-05-21T16:18:10.095Z,26.5
2023-05-21T16:21:09.617Z,26.4
2023-05-21T16:24:09.667Z,26.4
2023-05-21T16:27:09.553Z,26.2
2023-05-21T16:30:09.677Z,26
2023-05-21T16:33:10.017Z,25.9
2023-05-21T16:36:09.629Z,25.8
2023-05-21T16:39:09.563Z,25.8
2023-05-21T16:42:09.605Z,25.8
2023-05-21T16:45:09.611Z,25.8
2023-05-21T16:48:09.913Z,25.9
2023-05-21T16:51:09.524Z,25.8
2023-05-21T16:54:09.573Z,25.7
2023-05-21T16:57:10.135Z,25.7
2023-05-21T17:00:09.745Z,25.7
2023-05-21T17:03:10.247Z,25.6
2023-05-21T17:06:09.629Z,25.4
2023-05-21T17:09:11.647Z,25.4
2023-05-21T17:12:09.790Z,25.4
2023-05-21T17:15:09.633Z,25.3
2023-05-21T17:18:09.967Z,25.3
2023-05-21T17:21:09.630Z,25.2
2023-05-21T17:24:09.537Z,25.1
2023-05-21T17:27:09.616Z,25.1
2023-05-21T17:30:09.613Z,25
2023-05-21T17:33:10.056Z,24.9
2023-05-21T17:36:09.552Z,24.8
2023-05-21T17:39:09.562Z,24.7
2023-05-21T17:42:09.639Z,24.7
2023-05-21T17:45:09.579Z,24.5
2023-05-21T17:48:10.351Z,24.4
2023-05-21T17:51:09.544Z,24.3
2023-05-21T17:54:09.578Z,24.1
2023-05-21T17:57:09.552Z,24
2023-05-21T18:00:09.746Z,23.8
2023-05-21T18:03:10.014Z,23.7
2023-05-21T18:06:12.001Z,23.6
2023-05-21T18:09:09.556Z,23.6
2023-05-21T18:12:09.590Z,23.6
2023-05-21T18:15:09.576Z,23.6
2023-05-21T18:18:09.918Z,23.4
2023-05-21T18:21:09.581Z,23.3
2023-05-21T18:24:09.625Z,23.3
2023-05-21T18:27:09.653Z,23.1
2023-05-21T18:30:09.588Z,23.1
2023-05-21T18:33:09.845Z,23.1
2023-05-21T18:36:09.589Z,22.9
2023-05-21T18:39:09.551Z,22.8
2023-05-21T18:42:22.792Z,22.7
2023-05-21T18:45:09.611Z,22.6
2023-05-21T18:48:10.041Z,22.4
2023-05-21T18:51:09.535Z,22.4
2023-05-21T18:54:09.570Z,22.3
2023-05-21T18:57:09.647Z,22.2
2023-05-21T19:00:09.983Z,22.2
2023-05-21T19:03:09.963Z,22.2
2023-05-21T19:06:09.554Z,22.1
2023-05-21T19:09:09.609Z,21.9
2023-05-21T19:12:09.662Z,21.8
2023-05-21T19:15:09.550Z,21.7
2023-05-21T19:18:09.786Z,21.6
2023-05-21T19:21:09.548Z,21.4
2023-05-21T19:24:12.528Z,21.4
2023-05-21T19:27:09.509Z,21.3
2023-05-21T19:30:09.511Z,21.2
2023-05-21T19:33:09.967Z,21.2
2023-05-21T19:36:09.542Z,21.3
2023-05-21T19:39:09.526Z,21.4
2023-05-21T19:42:09.526Z,21.4
2023-05-21T19:45:09.688Z,21.5
2023-05-21T19:48:09.907Z,21.6
2023-05-21T19:51:09.547Z,21.6
2023-05-21T19:54:09.437Z,21.6
2023-05-21T19:57:12.257Z,21.4
2023-05-21T20:00:09.570Z,21.3
2023-05-21T20:03:10.720Z,21.1
2023-05-21T20:06:09.492Z,21.1
2023-05-21T20:09:09.509Z,20.9
2023-05-21T20:12:09.499Z,20.8
2023-05-21T20:15:09.821Z,20.8
2023-05-21T20:18:09.907Z,20.7
2023-05-21T20:21:10.361Z,20.6
2023-05-21T20:24:09.512Z,20.6
2023-05-21T20:27:09.596Z,20.6
2023-05-21T20:30:09.616Z,20.4
2023-05-21T20:33:09.817Z,20.3
2023-05-21T20:36:09.725Z,20.1
2023-05-21T20:39:09.600Z,19.6
2023-05-21T20:42:09.517Z,19.2
2023-05-21T20:45:09.825Z,18.9
2023-05-21T20:48:10.169Z,18.7
2023-05-21T20:51:09.507Z,18.4
2023-05-21T20:54:09.560Z,18.3
2023-05-21T20:57:09.566Z,18.1
2023-05-21T21:00:09.630Z,18
2023-05-21T21:03:10.416Z,17.9
2023-05-21T21:06:09.809Z,17.6
2023-05-21T21:09:09.537Z,17.3
2023-05-21T21:12:31.464Z,16.9
2023-05-21T21:15:09.606Z,16.6
2023-05-21T21:18:09.994Z,16.3
2023-05-21T21:21:09.527Z,16.2
2023-05-21T21:24:09.514Z,16.2
2023-05-21T21:27:09.577Z,16.2
2023-05-21T21:30:09.445Z,16.1
2023-05-21T21:33:10.323Z,16
2023-05-21T21:36:09.551Z,15.8
2023-05-21T21:39:09.495Z,15.8
2023-05-21T21:42:09.494Z,15.8
2023-05-21T21:45:09.761Z,15.7
2023-05-21T21:48:09.934Z,15.7
2023-05-21T21:51:09.473Z,15.6
2023-05-21T21:54:09.689Z,15.6
2023-05-21T21:57:09.539Z,15.6
2023-05-21T22:00:10.598Z,15.5
2023-05-21T22:06:09.563Z,15.4
2023-05-21T22:09:09.796Z,15.4
2023-05-21T22:12:09.503Z,15.2
2023-05-21T22:15:09.784Z,15.2
2023-05-21T22:18:09.984Z,15.2
2023-05-21T22:21:09.896Z,15.3
2023-05-21T22:24:24.493Z,15.4
2023-05-21T22:27:09.504Z,15.3
2023-05-21T22:30:09.536Z,15.3
2023-05-21T22:33:09.761Z,15.2
2023-05-21T22:36:09.669Z,15.1
2023-05-21T22:39:09.503Z,15.1
2023-05-21T22:42:09.524Z,15
2023-05-21T22:45:09.524Z,15.1
2023-05-21T22:48:09.967Z,15
2023-05-21T22:51:09.549Z,15
2023-05-21T22:54:09.511Z,15
2023-05-21T22:57:09.574Z,14.8
2023-05-21T23:00:09.640Z,14.7
2023-05-21T23:03:09.993Z,14.7
2023-05-21T23:06:09.543Z,14.6
2023-05-21T23:09:09.559Z,14.5
2023-05-21T23:12:09.505Z,14.4
2023-05-21T23:15:09.855Z,14.4
2023-05-21T23:18:10.176Z,14.4
2023-05-21T23:21:09.902Z,14.3
2023-05-21T23:24:09.523Z,14.3
2023-05-21T23:27:09.517Z,14.1
2023-05-21T23:30:09.496Z,14.1
2023-05-21T23:33:10.021Z,14.3
2023-05-21T23:36:09.527Z,14.3
2023-05-21T23:39:09.594Z,14.2
2023-05-21T23:42:09.513Z,14.1
2023-05-21T23:45:09.505Z,14.1
2023-05-21T23:48:09.994Z,14.1
2023-05-21T23:51:09.529Z,14.1
2023-05-21T23:54:09.524Z,14
2023-05-21T23:57:09.590Z,13.9
